sensor_id;sensor_type;location;lat;lon;timestamp;pressure;altitude;pressure_sealevel;temperature;humidity
16690;BME280;8458;52.220;9.884;2023-07-02T00:01:07;99738.19;;;16.76;100.00
16690;BME280;8458;52.220;9.884;2023-07-02T00:03:33;99737.06;;;16.77;100.00
16690;BME280;8458;52.220;9.884;2023-07-02T00:06:00;99735.41;;;16.76;100.00
16690;BME280;8458;52.220;9.884;2023-07-02T00:08:27;99734.75;;;16.79;100.00
16690;BME280;8458;52.220;9.884;2023-07-02T00:10:54;99730.78;;;16.80;100.00
16690;BME280;8458;52.220;9.884;2023-07-02T00:13:20;99737.88;;;16.77;100.00
16690;BME280;8458;52.220;9.884;2023-07-02T00:15:47;99727.84;;;16.76;100.00
16690;BME280;8458;52.220;9.884;2023-07-02T00:18:13;99739.84;;;16.77;100.00
16690;BME280;8458;52.220;9.884;2023-07-02T00:20:41;99734.94;;;16.82;100.00
16690;BME280;8458;52.220;9.884;2023-07-02T00:23:08;99732.44;;;16.81;100.00
16690;BME280;8458;52.220;9.884;2023-07-02T00:25:36;99729.66;;;16.81;100.00
16690;BME280;8458;52.220;9.884;2023-07-02T00:28:03;99734.09;;;16.82;100.00
16690;BME280;8458;52.220;9.884;2023-07-02T00:30:30;99730.63;;;16.85;100.00
16690;BME280;8458;52.220;9.884;2023-07-02T00:32:56;99727.53;;;16.95;100.00
16690;BME280;8458;52.220;9.884;2023-07-02T00:35:23;99734.28;;;16.94;100.00
16690;BME280;8458;52.220;9.884;2023-07-02T00:37:49;99732.94;;;17.00;100.00
16690;BME280;8458;52.220;9.884;2023-07-02T00:40:16;99745.81;;;17.01;100.00
16690;BME280;8458;52.220;9.884;2023-07-02T00:42:44;99738.88;;;17.08;100.00
16690;BME280;8458;52.220;9.884;2023-07-02T00:45:10;99744.00;;;17.06;100.00
16690;BME280;8458;52.220;9.884;2023-07-02T00:47:36;99749.59;;;17.06;100.00
16690;BME280;8458;52.220;9.884;2023-07-02T00:50:04;99739.88;;;17.12;100.00
16690;BME280;8458;52.220;9.884;2023-07-02T00:52:31;99749.91;;;17.13;100.00
16690;BME280;8458;52.220;9.884;2023-07-02T00:54:57;99749.72;;;17.18;100.00
16690;BME280;8458;52.220;9.884;2023-07-02T00:57:24;99734.56;;;17.19;100.00
16690;BME280;8458;52.220;9.884;2023-07-02T00:59:56;99738.84;;;17.25;100.00
16690;BME280;8458;52.220;9.884;2023-07-02T01:02:22;99737.38;;;17.28;100.00
16690;BME280;8458;52.220;9.884;2023-07-02T01:04:51;99735.72;;;17.27;100.00
16690;BME280;8458;52.220;9.884;2023-07-02T01:07:22;99729.28;;;17.26;100.00
16690;BME280;8458;52.220;9.884;2023-07-02T01:09:49;99739.84;;;17.29;100.00
16690;BME280;8458;52.220;9.884;2023-07-02T01:12:17;99735.03;;;17.30;100.00
16690;BME280;8458;52.220;9.884;2023-07-02T01:14:47;99731.91;;;17.31;100.00
16690;BME280;8458;52.220;9.884;2023-07-02T01:17:15;99737.19;;;17.24;100.00
16690;BME280;8458;52.220;9.884;2023-07-02T01:19:47;99730.91;;;17.27;100.00
16690;BME280;8458;52.220;9.884;2023-07-02T01:22:17;99725.50;;;17.31;100.00
16690;BME280;8458;52.220;9.884;2023-07-02T01:24:44;99724.34;;;17.23;100.00
16690;BME280;8458;52.220;9.884;2023-07-02T01:27:13;99717.09;;;17.22;100.00
16690;BME280;8458;52.220;9.884;2023-07-02T01:29:41;99713.28;;;17.27;100.00
16690;BME280;8458;52.220;9.884;2023-07-02T01:32:10;99712.47;;;17.26;100.00
16690;BME280;8458;52.220;9.884;2023-07-02T01:34:37;99715.28;;;17.26;100.00
16690;BME280;8458;52.220;9.884;2023-07-02T01:37:05;99712.31;;;17.23;100.00
16690;BME280;8458;52.220;9.884;2023-07-02T01:39:31;99713.63;;;17.25;100.00
16690;BME280;8458;52.220;9.884;2023-07-02T01:42:07;99724.03;;;17.25;100.00
16690;BME280;8458;52.220;9.884;2023-07-02T01:44:34;99728.31;;;17.22;100.00
16690;BME280;8458;52.220;9.884;2023-07-02T01:47:01;99733.41;;;17.20;100.00
16690;BME280;8458;52.220;9.884;2023-07-02T01:49:27;99726.66;;;17.21;100.00
16690;BME280;8458;52.220;9.884;2023-07-02T01:51:55;99732.75;;;17.14;100.00
16690;BME280;8458;52.220;9.884;2023-07-02T01:54:24;99739.88;;;17.12;100.00
16690;BME280;8458;52.220;9.884;2023-07-02T01:56:52;99733.75;;;17.10;98.42
16690;BME280;8458;52.220;9.884;2023-07-02T01:59:18;99736.25;;;17.02;97.41
16690;BME280;8458;52.220;9.884;2023-07-02T02:01:45;99740.53;;;16.91;97.45
16690;BME280;8458;52.220;9.884;2023-07-02T02:04:12;99745.78;;;16.84;97.46
16690;BME280;8458;52.220;9.884;2023-07-02T02:06:40;99750.41;;;16.80;97.41
16690;BME280;8458;52.220;9.884;2023-07-02T02:09:07;99752.53;;;16.65;98.46
16690;BME280;8458;52.220;9.884;2023-07-02T02:11:38;99746.44;;;16.55;99.35
16690;BME280;8458;52.220;9.884;2023-07-02T02:14:05;99750.69;;;16.52;99.93
16690;BME280;8458;52.220;9.884;2023-07-02T02:16:32;99745.41;;;16.42;100.00
16690;BME280;8458;52.220;9.884;2023-07-02T02:19:00;99756.44;;;16.38;100.00
16690;BME280;8458;52.220;9.884;2023-07-02T02:21:26;99752.19;;;16.41;100.00
16690;BME280;8458;52.220;9.884;2023-07-02T02:23:53;99755.94;;;16.45;100.00
16690;BME280;8458;52.220;9.884;2023-07-02T02:26:20;99754.31;;;16.44;100.00
16690;BME280;8458;52.220;9.884;2023-07-02T02:28:48;99756.47;;;16.47;100.00
16690;BME280;8458;52.220;9.884;2023-07-02T02:31:15;99754.47;;;16.47;100.00
16690;BME280;8458;52.220;9.884;2023-07-02T02:33:42;99759.41;;;16.42;100.00
16690;BME280;8458;52.220;9.884;2023-07-02T02:36:08;99751.53;;;16.44;100.00
16690;BME280;8458;52.220;9.884;2023-07-02T02:38:35;99764.50;;;16.40;100.00
16690;BME280;8458;52.220;9.884;2023-07-02T02:41:02;99762.69;;;16.35;100.00
16690;BME280;8458;52.220;9.884;2023-07-02T02:43:29;99756.59;;;16.42;100.00
16690;BME280;8458;52.220;9.884;2023-07-02T02:45:57;99755.63;;;16.38;100.00
16690;BME280;8458;52.220;9.884;2023-07-02T02:48:23;99748.72;;;16.44;100.00
16690;BME280;8458;52.220;9.884;2023-07-02T02:50:50;99759.56;;;16.37;100.00
16690;BME280;8458;52.220;9.884;2023-07-02T02:53:17;99740.66;;;16.42;100.00
16690;BME280;8458;52.220;9.884;2023-07-02T02:55:43;99736.53;;;16.40;100.00
16690;BME280;8458;52.220;9.884;2023-07-02T02:58:10;99741.97;;;16.36;100.00
16690;BME280;8458;52.220;9.884;2023-07-02T03:00:36;99730.94;;;16.40;100.00
16690;BME280;8458;52.220;9.884;2023-07-02T03:03:04;99738.84;;;16.38;100.00
16690;BME280;8458;52.220;9.884;2023-07-02T03:05:31;99739.34;;;16.40;100.00
16690;BME280;8458;52.220;9.884;2023-07-02T03:07:57;99740.16;;;16.31;100.00
16690;BME280;8458;52.220;9.884;2023-07-02T03:10:24;99739.66;;;16.38;100.00
16690;BME280;8458;52.220;9.884;2023-07-02T03:12:50;99736.53;;;16.40;100.00
16690;BME280;8458;52.220;9.884;2023-07-02T03:15:17;99743.13;;;16.44;100.00
16690;BME280;8458;52.220;9.884;2023-07-02T03:17:43;99736.06;;;16.38;100.00
16690;BME280;8458;52.220;9.884;2023-07-02T03:20:11;99748.22;;;16.33;100.00
16690;BME280;8458;52.220;9.884;2023-07-02T03:22:38;99733.25;;;16.38;100.00
16690;BME280;8458;52.220;9.884;2023-07-02T03:25:05;99730.59;;;16.33;100.00
16690;BME280;8458;52.220;9.884;2023-07-02T03:27:32;99735.53;;;16.36;100.00
16690;BME280;8458;52.220;9.884;2023-07-02T03:29:58;99736.53;;;16.40;100.00
16690;BME280;8458;52.220;9.884;2023-07-02T03:32:24;99730.94;;;16.40;100.00
16690;BME280;8458;52.220;9.884;2023-07-02T03:34:51;99727.00;;;16.41;100.00
16690;BME280;8458;52.220;9.884;2023-07-02T03:37:19;99735.03;;;16.34;100.00
16690;BME280;8458;52.220;9.884;2023-07-02T03:39:45;99726.81;;;16.37;100.00
16690;BME280;8458;52.220;9.884;2023-07-02T03:42:11;99733.25;;;16.38;100.00
16690;BME280;8458;52.220;9.884;2023-07-02T03:44:38;99732.59;;;16.41;100.00
16690;BME280;8458;52.220;9.884;2023-07-02T03:47:06;99730.28;;;16.43;100.00
16690;BME280;8458;52.220;9.884;2023-07-02T03:49:33;99725.19;;;16.45;100.00
16690;BME280;8458;52.220;9.884;2023-07-02T03:51:59;99727.31;;;16.48;100.00
16690;BME280;8458;52.220;9.884;2023-07-02T03:54:27;99729.16;;;16.44;100.00
16690;BME280;8458;52.220;9.884;2023-07-02T03:56:54;99732.09;;;16.47;100.00
16690;BME280;8458;52.220;9.884;2023-07-02T03:59:20;99738.38;;;16.53;100.00
16690;BME280;8458;52.220;9.884;2023-07-02T04:01:47;99742.13;;;16.57;100.00
16690;BME280;8458;52.220;9.884;2023-07-02T04:04:13;99738.84;;;16.55;100.00
16690;BME280;8458;52.220;9.884;2023-07-02T04:06:40;99742.47;;;16.56;100.00
16690;BME280;8458;52.220;9.884;2023-07-02T04:09:06;99745.75;;;16.49;100.00
16690;BME280;8458;52.220;9.884;2023-07-02T04:11:34;99748.88;;;16.47;100.00
16690;BME280;8458;52.220;9.884;2023-07-02T04:14:00;99756.47;;;16.47;100.00
16690;BME280;8458;52.220;9.884;2023-07-02T04:16:27;99754.47;;;16.47;100.00
16690;BME280;8458;52.220;9.884;2023-07-02T04:18:54;99760.41;;;16.46;100.00
16690;BME280;8458;52.220;9.884;2023-07-02T04:21:20;99752.38;;;16.53;100.00
16690;BME280;8458;52.220;9.884;2023-07-02T04:23:47;99751.53;;;16.53;100.00
16690;BME280;8458;52.220;9.884;2023-07-02T04:26:13;99748.06;;;16.47;100.00
16690;BME280;8458;52.220;9.884;2023-07-02T04:28:41;99754.50;;;16.56;100.00
16690;BME280;8458;52.220;9.884;2023-07-02T04:31:07;99751.88;;;16.60;100.00
16690;BME280;8458;52.220;9.884;2023-07-02T04:33:34;99747.09;;;16.60;100.00
16690;BME280;8458;52.220;9.884;2023-07-02T04:36:02;99751.88;;;16.60;100.00
16690;BME280;8458;52.220;9.884;2023-07-02T04:38:28;99754.69;;;16.69;100.00
16690;BME280;8458;52.220;9.884;2023-07-02T04:40:55;99760.44;;;16.72;100.00
16690;BME280;8458;52.220;9.884;2023-07-02T04:43:22;99767.84;;;16.77;100.00
16690;BME280;8458;52.220;9.884;2023-07-02T04:45:50;99785.59;;;16.63;100.00
16690;BME280;8458;52.220;9.884;2023-07-02T04:48:17;99799.59;;;16.63;100.00
16690;BME280;8458;52.220;9.884;2023-07-02T04:50:43;99814.41;;;16.55;100.00
16690;BME280;8458;52.220;9.884;2023-07-02T04:53:10;99793.41;;;16.18;100.00
16690;BME280;8458;52.220;9.884;2023-07-02T04:55:36;99819.25;;;15.83;99.25
16690;BME280;8458;52.220;9.884;2023-07-02T04:58:03;99812.41;;;15.67;99.09
16690;BME280;8458;52.220;9.884;2023-07-02T05:00:29;99810.06;;;15.60;97.31
16690;BME280;8458;52.220;9.884;2023-07-02T05:02:57;99820.09;;;15.61;97.07
16690;BME280;8458;52.220;9.884;2023-07-02T05:05:23;99816.31;;;15.57;97.87
16690;BME280;8458;52.220;9.884;2023-07-02T05:07:50;99814.81;;;15.59;97.74
16690;BME280;8458;52.220;9.884;2023-07-02T05:10:16;99810.50;;;15.53;97.06
16690;BME280;8458;52.220;9.884;2023-07-02T05:12:43;99810.00;;;15.51;96.84
16690;BME280;8458;52.220;9.884;2023-07-02T05:15:09;99797.31;;;15.45;96.61
16690;BME280;8458;52.220;9.884;2023-07-02T05:17:37;99816.38;;;15.43;98.30
16690;BME280;8458;52.220;9.884;2023-07-02T05:20:06;99818.22;;;15.48;99.15
16690;BME280;8458;52.220;9.884;2023-07-02T05:22:33;99815.53;;;15.42;99.21
16690;BME280;8458;52.220;9.884;2023-07-02T05:24:59;99811.78;;;15.47;99.60
16690;BME280;8458;52.220;9.884;2023-07-02T05:27:26;99819.16;;;15.43;100.00
16690;BME280;8458;52.220;9.884;2023-07-02T05:29:52;99806.59;;;15.32;100.00
16690;BME280;8458;52.220;9.884;2023-07-02T05:32:19;99816.00;;;15.36;100.00
16690;BME280;8458;52.220;9.884;2023-07-02T05:34:45;99813.06;;;15.41;100.00
16690;BME280;8458;52.220;9.884;2023-07-02T05:37:13;99811.66;;;15.30;100.00
16690;BME280;8458;52.220;9.884;2023-07-02T05:39:39;99815.81;;;15.32;100.00
16690;BME280;8458;52.220;9.884;2023-07-02T05:42:06;99819.28;;;15.38;100.00
16690;BME280;8458;52.220;9.884;2023-07-02T05:44:32;99817.66;;;15.37;100.00
16690;BME280;8458;52.220;9.884;2023-07-02T05:46:59;99817.25;;;15.30;100.00
16690;BME280;8458;52.220;9.884;2023-07-02T05:49:25;99824.06;;;15.37;100.00
16690;BME280;8458;52.220;9.884;2023-07-02T05:51:52;99824.88;;;15.38;100.00
16690;BME280;8458;52.220;9.884;2023-07-02T05:54:20;99827.53;;;15.43;100.00
16690;BME280;8458;52.220;9.884;2023-07-02T05:56:47;99831.34;;;15.47;100.00
16690;BME280;8458;52.220;9.884;2023-07-02T05:59:13;99832.50;;;15.46;100.00
16690;BME280;8458;52.220;9.884;2023-07-02T06:01:43;99828.75;;;15.51;100.00
16690;BME280;8458;52.220;9.884;2023-07-02T06:04:09;99832.22;;;15.56;100.00
16690;BME280;8458;52.220;9.884;2023-07-02T06:06:35;99834.06;;;15.61;100.00
16690;BME280;8458;52.220;9.884;2023-07-02T06:09:02;99839.84;;;15.65;100.00
16690;BME280;8458;52.220;9.884;2023-07-02T06:11:30;99832.84;;;15.76;100.00
16690;BME280;8458;52.220;9.884;2023-07-02T06:13:57;99845.16;;;15.75;100.00
16690;BME280;8458;52.220;9.884;2023-07-02T06:16:23;99838.31;;;15.81;100.00
16690;BME280;8458;52.220;9.884;2023-07-02T06:18:50;99844.59;;;15.87;100.00
16690;BME280;8458;52.220;9.884;2023-07-02T06:21:16;99849.22;;;15.91;100.00
16690;BME280;8458;52.220;9.884;2023-07-02T06:23:43;99843.63;;;15.91;100.00
16690;BME280;8458;52.220;9.884;2023-07-02T06:26:10;99847.75;;;15.94;100.00
16690;BME280;8458;52.220;9.884;2023-07-02T06:28:38;99843.72;;;16.09;100.00
16690;BME280;8458;52.220;9.884;2023-07-02T06:31:04;99842.41;;;16.15;100.00
16690;BME280;8458;52.220;9.884;2023-07-02T06:33:31;99841.59;;;16.15;100.00
16690;BME280;8458;52.220;9.884;2023-07-02T06:35:57;99843.13;;;16.29;100.00
16690;BME280;8458;52.220;9.884;2023-07-02T06:38:24;99844.50;;;16.41;100.00
16690;BME280;8458;52.220;9.884;2023-07-02T06:40:50;99842.69;;;16.45;100.00
16690;BME280;8458;52.220;9.884;2023-07-02T06:43:16;99854.88;;;16.49;100.00
16690;BME280;8458;52.220;9.884;2023-07-02T06:45:44;99855.38;;;16.51;100.00
16690;BME280;8458;52.220;9.884;2023-07-02T06:48:11;99864.13;;;16.58;100.00
16690;BME280;8458;52.220;9.884;2023-07-02T06:50:43;99862.81;;;16.64;100.00
16690;BME280;8458;52.220;9.884;2023-07-02T06:53:09;99865.97;;;16.72;100.00
16690;BME280;8458;52.220;9.884;2023-07-02T06:55:36;99873.56;;;16.80;100.00
16690;BME280;8458;52.220;9.884;2023-07-02T06:58:04;99875.22;;;16.81;100.00
16690;BME280;8458;52.220;9.884;2023-07-02T07:00:31;99872.91;;;16.83;100.00
16690;BME280;8458;52.220;9.884;2023-07-02T07:02:58;99877.50;;;16.79;100.00
16690;BME280;8458;52.220;9.884;2023-07-02T07:05:25;99880.81;;;16.81;100.00
16690;BME280;8458;52.220;9.884;2023-07-02T07:07:51;99877.88;;;16.86;99.05
16690;BME280;8458;52.220;9.884;2023-07-02T07:10:18;99891.06;;;16.94;99.40
16690;BME280;8458;52.220;9.884;2023-07-02T07:12:45;99891.75;;;17.09;100.00
16690;BME280;8458;52.220;9.884;2023-07-02T07:15:11;99891.09;;;17.12;94.70
16690;BME280;8458;52.220;9.884;2023-07-02T07:17:38;99899.34;;;17.17;92.32
16690;BME280;8458;52.220;9.884;2023-07-02T07:20:07;99896.53;;;17.17;93.08
16690;BME280;8458;52.220;9.884;2023-07-02T07:22:33;99898.16;;;17.18;91.61
16690;BME280;8458;52.220;9.884;2023-07-02T07:25:00;99895.22;;;17.23;91.08
16690;BME280;8458;52.220;9.884;2023-07-02T07:27:26;99897.19;;;17.31;86.75
16690;BME280;8458;52.220;9.884;2023-07-02T07:29:53;99894.72;;;17.38;86.02
16690;BME280;8458;52.220;9.884;2023-07-02T07:32:20;99897.50;;;17.47;86.80
16690;BME280;8458;52.220;9.884;2023-07-02T07:34:47;99900.50;;;17.51;78.45
16690;BME280;8458;52.220;9.884;2023-07-02T07:37:14;99901.63;;;17.50;77.33
16690;BME280;8458;52.220;9.884;2023-07-02T07:39:41;99914.66;;;17.46;73.86
16690;BME280;8458;52.220;9.884;2023-07-02T07:42:07;99908.38;;;17.49;74.04
16690;BME280;8458;52.220;9.884;2023-07-02T07:44:34;99913.84;;;17.54;74.45
16690;BME280;8458;52.220;9.884;2023-07-02T07:47:00;99906.41;;;17.58;74.21
16690;BME280;8458;52.220;9.884;2023-07-02T07:49:27;99908.41;;;17.66;73.54
16690;BME280;8458;52.220;9.884;2023-07-02T07:51:53;99911.03;;;17.71;71.77
16690;BME280;8458;52.220;9.884;2023-07-02T07:54:21;99911.34;;;17.70;70.13
16690;BME280;8458;52.220;9.884;2023-07-02T07:56:49;99913.00;;;17.71;70.78
16690;BME280;8458;52.220;9.884;2023-07-02T07:59:16;99917.44;;;17.81;72.93
16690;BME280;8458;52.220;9.884;2023-07-02T08:01:42;99912.34;;;17.91;71.79
16690;BME280;8458;52.220;9.884;2023-07-02T08:04:09;99923.56;;;18.00;68.86
16690;BME280;8458;52.220;9.884;2023-07-02T08:06:35;99921.88;;;18.08;69.97
16690;BME280;8458;52.220;9.884;2023-07-02T08:09:02;99908.78;;;18.21;70.33
16690;BME280;8458;52.220;9.884;2023-07-02T08:11:30;99920.34;;;18.28;68.31
16690;BME280;8458;52.220;9.884;2023-07-02T08:13:57;99927.44;;;18.25;66.02
16690;BME280;8458;52.220;9.884;2023-07-02T08:16:23;99930.22;;;18.34;67.17
16690;BME280;8458;52.220;9.884;2023-07-02T08:18:50;99924.41;;;18.39;66.87
16690;BME280;8458;52.220;9.884;2023-07-02T08:21:16;99935.44;;;18.44;66.27
16690;BME280;8458;52.220;9.884;2023-07-02T08:23:43;99935.78;;;18.43;66.40
16690;BME280;8458;52.220;9.884;2023-07-02T08:26:10;99937.38;;;18.53;67.72
16690;BME280;8458;52.220;9.884;2023-07-02T08:28:38;99938.38;;;18.57;66.82
16690;BME280;8458;52.220;9.884;2023-07-02T08:31:05;99932.56;;;18.62;64.15
16690;BME280;8458;52.220;9.884;2023-07-02T08:33:31;99949.66;;;18.39;61.37
16690;BME280;8458;52.220;9.884;2023-07-02T08:35:58;99959.28;;;18.21;61.94
16690;BME280;8458;52.220;9.884;2023-07-02T08:38:25;99950.88;;;18.12;63.79
16690;BME280;8458;52.220;9.884;2023-07-02T08:40:52;99957.03;;;18.05;65.06
16690;BME280;8458;52.220;9.884;2023-07-02T08:43:18;99952.75;;;18.08;66.26
16690;BME280;8458;52.220;9.884;2023-07-02T08:45:46;99964.25;;;18.24;66.51
16690;BME280;8458;52.220;9.884;2023-07-02T08:48:13;99956.50;;;18.21;67.66
16690;BME280;8458;52.220;9.884;2023-07-02T08:50:40;99962.78;;;18.09;66.37
16690;BME280;8458;52.220;9.884;2023-07-02T08:53:08;99974.84;;;18.09;66.06
16690;BME280;8458;52.220;9.884;2023-07-02T08:55:34;99976.50;;;18.02;67.60
16690;BME280;8458;52.220;9.884;2023-07-02T08:58:01;99980.78;;;17.99;66.98
16690;BME280;8458;52.220;9.884;2023-07-02T09:00:27;99975.81;;;18.14;66.59
16690;BME280;8458;52.220;9.884;2023-07-02T09:02:57;99963.78;;;18.13;65.58
16690;BME280;8458;52.220;9.884;2023-07-02T09:05:24;99972.84;;;18.19;65.85
16690;BME280;8458;52.220;9.884;2023-07-02T09:07:50;99970.72;;;18.16;63.14
16690;BME280;8458;52.220;9.884;2023-07-02T09:10:27;99969.38;;;18.13;62.40
16690;BME280;8458;52.220;9.884;2023-07-02T09:13:03;99963.25;;;18.20;63.67
16690;BME280;8458;52.220;9.884;2023-07-02T09:15:35;99975.41;;;18.41;63.95
16690;BME280;8458;52.220;9.884;2023-07-02T09:18:14;99971.69;;;18.67;64.06
16690;BME280;8458;52.220;9.884;2023-07-02T09:20:40;99967.00;;;18.89;63.71
16690;BME280;8458;52.220;9.884;2023-07-02T09:23:07;99970.34;;;19.12;63.79
16690;BME280;8458;52.220;9.884;2023-07-02T09:25:35;99974.84;;;19.04;60.61
16690;BME280;8458;52.220;9.884;2023-07-02T09:28:13;99976.09;;;19.15;58.83
16690;BME280;8458;52.220;9.884;2023-07-02T09:30:48;99960.47;;;19.27;59.17
16690;BME280;8458;52.220;9.884;2023-07-02T09:33:17;99967.69;;;19.37;55.75
16690;BME280;8458;52.220;9.884;2023-07-02T09:35:43;99975.88;;;19.50;57.08
16690;BME280;8458;52.220;9.884;2023-07-02T09:38:10;99970.38;;;19.54;56.73
16690;BME280;8458;52.220;9.884;2023-07-02T09:40:44;99981.75;;;19.58;56.84
16690;BME280;8458;52.220;9.884;2023-07-02T09:43:12;99985.31;;;19.46;54.18
16690;BME280;8458;52.220;9.884;2023-07-02T09:45:42;99976.06;;;19.45;56.35
16690;BME280;8458;52.220;9.884;2023-07-02T09:48:11;99988.69;;;19.60;55.70
16690;BME280;8458;52.220;9.884;2023-07-02T09:50:40;99981.63;;;19.75;56.28
16690;BME280;8458;52.220;9.884;2023-07-02T09:53:07;99980.06;;;19.86;55.35
16690;BME280;8458;52.220;9.884;2023-07-02T09:55:34;99976.38;;;20.07;56.67
16690;BME280;8458;52.220;9.884;2023-07-02T09:58:01;99990.63;;;20.23;54.12
16690;BME280;8458;52.220;9.884;2023-07-02T10:00:27;99990.72;;;20.14;51.90
16690;BME280;8458;52.220;9.884;2023-07-02T10:02:54;99991.88;;;20.13;52.49
16690;BME280;8458;52.220;9.884;2023-07-02T10:05:27;99991.88;;;20.13;50.97
16690;BME280;8458;52.220;9.884;2023-07-02T10:07:56;99974.78;;;20.18;51.08
16690;BME280;8458;52.220;9.884;2023-07-02T10:10:27;99997.78;;;20.20;51.68
16690;BME280;8458;52.220;9.884;2023-07-02T10:12:55;99990.19;;;20.00;49.42
16690;BME280;8458;52.220;9.884;2023-07-02T10:15:25;100001.25;;;20.05;51.41
16690;BME280;8458;52.220;9.884;2023-07-02T10:17:56;99993.25;;;20.07;50.06
16690;BME280;8458;52.220;9.884;2023-07-02T10:20:31;99998.72;;;20.24;50.88
16690;BME280;8458;52.220;9.884;2023-07-02T10:23:00;100004.19;;;20.42;50.70
16690;BME280;8458;52.220;9.884;2023-07-02T10:25:28;100009.56;;;20.47;48.59
16690;BME280;8458;52.220;9.884;2023-07-02T10:27:55;100009.03;;;20.66;51.40
16690;BME280;8458;52.220;9.884;2023-07-02T10:30:30;100019.63;;;20.82;50.91
16690;BME280;8458;52.220;9.884;2023-07-02T10:33:07;99993.22;;;20.86;48.87
16690;BME280;8458;52.220;9.884;2023-07-02T10:35:34;100005.81;;;20.89;47.66
16690;BME280;8458;52.220;9.884;2023-07-02T10:38:02;100015.75;;;20.74;48.15
16690;BME280;8458;52.220;9.884;2023-07-02T10:40:29;100002.38;;;20.83;48.66
16690;BME280;8458;52.220;9.884;2023-07-02T10:42:56;100013.91;;;21.03;47.38
16690;BME280;8458;52.220;9.884;2023-07-02T10:45:31;100008.13;;;21.11;47.86
16690;BME280;8458;52.220;9.884;2023-07-02T10:47:57;100009.91;;;21.16;48.38
16690;BME280;8458;52.220;9.884;2023-07-02T10:50:24;100011.44;;;21.26;47.23
16690;BME280;8458;52.220;9.884;2023-07-02T10:52:53;100013.66;;;21.20;45.95
16690;BME280;8458;52.220;9.884;2023-07-02T10:55:21;100003.81;;;21.14;46.11
16690;BME280;8458;52.220;9.884;2023-07-02T10:57:49;100013.56;;;21.04;46.28
16690;BME280;8458;52.220;9.884;2023-07-02T11:00:17;100007.81;;;21.01;45.83
16690;BME280;8458;52.220;9.884;2023-07-02T11:02:44;100015.31;;;20.84;46.31
16690;BME280;8458;52.220;9.884;2023-07-02T11:05:10;100020.47;;;20.70;47.09
16690;BME280;8458;52.220;9.884;2023-07-02T11:07:38;100016.28;;;20.55;47.76
16690;BME280;8458;52.220;9.884;2023-07-02T11:10:06;100018.16;;;20.63;48.09
16690;BME280;8458;52.220;9.884;2023-07-02T11:12:34;100019.63;;;20.69;48.10
16690;BME280;8458;52.220;9.884;2023-07-02T11:15:08;100018.75;;;20.56;47.98
16690;BME280;8458;52.220;9.884;2023-07-02T11:17:34;100027.63;;;20.46;48.11
16690;BME280;8458;52.220;9.884;2023-07-02T11:20:01;100021.44;;;20.19;46.98
16690;BME280;8458;52.220;9.884;2023-07-02T11:22:33;100028.25;;;20.18;47.51
16690;BME280;8458;52.220;9.884;2023-07-02T11:25:08;100023.91;;;20.21;48.20
16690;BME280;8458;52.220;9.884;2023-07-02T11:27:36;100016.75;;;20.11;48.02
16690;BME280;8458;52.220;9.884;2023-07-02T11:30:04;100031.75;;;20.15;48.58
16690;BME280;8458;52.220;9.884;2023-07-02T11:32:30;100027.03;;;20.07;49.06
16690;BME280;8458;52.220;9.884;2023-07-02T11:34:57;100035.25;;;20.12;49.05
16690;BME280;8458;52.220;9.884;2023-07-02T11:37:23;100037.59;;;20.10;48.55
16690;BME280;8458;52.220;9.884;2023-07-02T11:39:50;100030.47;;;20.13;47.44
16690;BME280;8458;52.220;9.884;2023-07-02T11:42:17;100028.28;;;20.31;48.00
16690;BME280;8458;52.220;9.884;2023-07-02T11:44:45;100039.50;;;20.52;48.07
16690;BME280;8458;52.220;9.884;2023-07-02T11:47:11;100036.69;;;20.52;48.26
16690;BME280;8458;52.220;9.884;2023-07-02T11:49:37;100030.66;;;20.41;47.78
16690;BME280;8458;52.220;9.884;2023-07-02T11:52:04;100039.13;;;20.41;48.93
16690;BME280;8458;52.220;9.884;2023-07-02T11:54:31;100036.53;;;20.36;48.89
16690;BME280;8458;52.220;9.884;2023-07-02T11:56:57;100034.25;;;20.29;48.57
16690;BME280;8458;52.220;9.884;2023-07-02T11:59:24;100036.72;;;20.31;49.37
16690;BME280;8458;52.220;9.884;2023-07-02T12:01:52;100033.53;;;20.53;49.15
16690;BME280;8458;52.220;9.884;2023-07-02T12:04:18;100014.81;;;20.70;48.67
16690;BME280;8458;52.220;9.884;2023-07-02T12:06:45;100043.91;;;20.74;47.24
16690;BME280;8458;52.220;9.884;2023-07-02T12:09:11;100043.22;;;20.77;47.44
16690;BME280;8458;52.220;9.884;2023-07-02T12:11:38;100046.28;;;20.84;46.28
16690;BME280;8458;52.220;9.884;2023-07-02T12:14:05;100042.06;;;20.78;46.45
16690;BME280;8458;52.220;9.884;2023-07-02T12:16:31;100046.28;;;20.72;46.98
16690;BME280;8458;52.220;9.884;2023-07-02T12:18:59;100039.94;;;20.75;47.64
16690;BME280;8458;52.220;9.884;2023-07-02T12:21:25;100043.44;;;20.72;48.00
16690;BME280;8458;52.220;9.884;2023-07-02T12:23:52;100041.53;;;20.64;47.79
16690;BME280;8458;52.220;9.884;2023-07-02T12:26:18;100052.63;;;20.48;45.59
16690;BME280;8458;52.220;9.884;2023-07-02T12:28:45;100046.53;;;20.79;46.72
16690;BME280;8458;52.220;9.884;2023-07-02T12:31:11;100054.41;;;20.98;47.36
16690;BME280;8458;52.220;9.884;2023-07-02T12:33:39;100052.66;;;20.93;45.96
16690;BME280;8458;52.220;9.884;2023-07-02T12:36:07;100058.25;;;20.81;46.58
16690;BME280;8458;52.220;9.884;2023-07-02T12:38:33;100050.19;;;20.58;47.16
16690;BME280;8458;52.220;9.884;2023-07-02T12:41:00;100059.31;;;20.55;48.03
16690;BME280;8458;52.220;9.884;2023-07-02T12:43:26;100064.97;;;20.55;47.53
16690;BME280;8458;52.220;9.884;2023-07-02T12:45:53;100067.31;;;20.53;48.82
16690;BME280;8458;52.220;9.884;2023-07-02T12:48:19;100068.53;;;20.65;48.97
16690;BME280;8458;52.220;9.884;2023-07-02T12:50:56;100067.16;;;20.71;47.52
16690;BME280;8458;52.220;9.884;2023-07-02T12:53:24;100067.28;;;20.74;47.60
16690;BME280;8458;52.220;9.884;2023-07-02T12:55:51;100064.63;;;20.90;48.56
16690;BME280;8458;52.220;9.884;2023-07-02T12:58:17;100066.75;;;21.06;47.76
16690;BME280;8458;52.220;9.884;2023-07-02T13:00:44;100068.63;;;21.39;47.55
16690;BME280;8458;52.220;9.884;2023-07-02T13:03:12;100060.41;;;21.46;45.60